Time;durP1;ratioP1;P1;durP2;ratioP2;P2;SDS_P1;SDS_P2;PMS_P1;PMS_P2;Temp;Humidity;BMP_temperature;BMP_pressure;BME280_temperature;BME280_humidity;BME280_pressure;Samples;Min_cycle;Max_cycle;Signal;HPM_P1;HPM_P2
2023/02/06 00:01:45;;;;;;;;;;;19.20;50.40;;;;;;7781972;22;19994;-71
2023/02/06 00:04:45;;;;;;;;;;;19.10;50.30;;;;;;7786596;22;19938;-70
2023/02/06 00:07:46;;;;;;;;;;;19.10;50.30;;;;;;7786265;22;19986;-71
2023/02/06 00:10:46;;;;;;;;;;;19.20;50.40;;;;;;7781770;22;19908;-71
2023/02/06 00:13:46;;;;;;;;;;;19.20;50.40;;;;;;7786280;22;19915;-71
2023/02/06 00:16:47;;;;;;;;;;;19.20;50.40;;;;;;7786007;22;19907;-71
2023/02/06 00:19:47;;;;;;;;;;;19.20;50.40;;;;;;7786334;22;19907;-71
2023/02/06 00:22:48;;;;;;;;;;;19.20;50.40;;;;;;7786641;22;20095;-71
2023/02/06 00:25:48;;;;;;;;;;;19.10;50.30;;;;;;7786391;22;20334;-71
2023/02/06 00:28:49;;;;;;;;;;;19.10;50.20;;;;;;7785902;22;19904;-70
2023/02/06 00:31:49;;;;;;;;;;;19.20;50.40;;;;;;7781341;22;19987;-71
2023/02/06 00:34:50;;;;;;;;;;;19.20;50.30;;;;;;7786446;22;20192;-70
2023/02/06 00:37:50;;;;;;;;;;;19.20;50.40;;;;;;7785585;22;19949;-71
2023/02/06 00:40:51;;;;;;;;;;;19.20;50.30;;;;;;7786286;22;19926;-70
2023/02/06 00:43:51;;;;;;;;;;;19.20;50.40;;;;;;7785584;22;19911;-71
2023/02/06 00:46:52;;;;;;;;;;;19.20;50.30;;;;;;7786069;22;19904;-71
2023/02/06 00:49:52;;;;;;;;;;;19.20;50.30;;;;;;7785863;22;19933;-70
2023/02/06 00:52:53;;;;;;;;;;;19.10;50.20;;;;;;7785823;22;19915;-71
2023/02/06 00:55:53;;;;;;;;;;;19.20;50.30;;;;;;7773919;22;20285;-71
2023/02/06 00:58:54;;;;;;;;;;;19.10;50.20;;;;;;7786330;22;19907;-71
2023/02/06 01:01:54;;;;;;;;;;;19.10;50.20;;;;;;7786226;22;19907;-71
2023/02/06 01:04:55;;;;;;;;;;;19.10;50.20;;;;;;7785708;22;19941;-71
2023/02/06 01:07:55;;;;;;;;;;;19.10;50.20;;;;;;7785517;22;20117;-71
2023/02/06 01:10:56;;;;;;;;;;;19.10;50.20;;;;;;7785506;22;20234;-71
2023/02/06 01:13:56;;;;;;;;;;;19.10;50.20;;;;;;7785584;22;19950;-71
2023/02/06 01:16:57;;;;;;;;;;;19.10;50.20;;;;;;7785413;22;19907;-71
2023/02/06 01:19:58;;;;;;;;;;;19.10;50.20;;;;;;7785684;22;20296;-71
2023/02/06 01:22:58;;;;;;;;;;;19.20;50.30;;;;;;7785767;22;19903;-71
2023/02/06 01:25:59;;;;;;;;;;;19.10;50.20;;;;;;7780308;22;19907;-71
2023/02/06 01:29:00;;;;;;;;;;;19.10;50.20;;;;;;7786244;22;19904;-70
2023/02/06 01:32:01;;;;;;;;;;;19.10;50.20;;;;;;7785285;22;19903;-71
2023/02/06 01:35:01;;;;;;;;;;;19.10;50.20;;;;;;7785987;22;19915;-71
2023/02/06 01:38:02;;;;;;;;;;;19.10;50.20;;;;;;7785042;22;19904;-71
2023/02/06 01:41:02;;;;;;;;;;;19.10;50.20;;;;;;7785448;22;19911;-71
2023/02/06 01:44:20;;;;;;;;;;;19.10;50.20;;;;;;7785481;22;19927;-71
2023/02/06 01:47:21;;;;;;;;;;;19.10;50.20;;;;;;7785764;22;19910;-71
2023/02/06 01:50:21;;;;;;;;;;;19.10;50.20;;;;;;7785174;22;20319;-71
2023/02/06 01:53:23;;;;;;;;;;;19.10;50.20;;;;;;7785361;22;19976;-71
2023/02/06 01:56:24;;;;;;;;;;;19.10;50.20;;;;;;7777988;22;19985;-71
2023/02/06 01:59:25;;;;;;;;;;;19.10;50.20;;;;;;7786485;22;19982;-71
2023/02/06 02:02:27;;;;;;;;;;;19.10;50.20;;;;;;7785357;22;19939;-71
2023/02/06 02:05:27;;;;;;;;;;;19.10;50.30;;;;;;7780709;22;19942;-71
2023/02/06 02:08:31;;;;;;;;;;;19.10;50.30;;;;;;7785100;22;20061;-71
2023/02/06 02:11:34;;;;;;;;;;;19.10;50.30;;;;;;7785120;22;20294;-71
2023/02/06 02:14:35;;;;;;;;;;;19.10;50.20;;;;;;7785487;22;19915;-71
2023/02/06 02:17:55;;;;;;;;;;;19.10;50.20;;;;;;7784613;22;19935;-71
2023/02/06 02:20:55;;;;;;;;;;;19.10;50.20;;;;;;7786854;22;19903;-72
2023/02/06 02:24:04;;;;;;;;;;;19.10;50.20;;;;;;7787336;22;19910;-71
2023/02/06 02:27:10;;;;;;;;;;;19.10;50.20;;;;;;7787665;22;20116;-70
2023/02/06 02:30:49;;;;;;;;;;;19.10;50.20;;;;;;7787807;22;19907;-71
2023/02/06 02:33:53;;;;;;;;;;;19.10;50.20;;;;;;7633554;23;20304;-71
2023/02/06 02:37:00;;;;;;;;;;;19.10;50.20;;;;;;7633527;23;19936;-72
2023/02/06 02:40:03;;;;;;;;;;;19.10;50.20;;;;;;7787138;22;19903;-71
2023/02/06 02:43:04;;;;;;;;;;;19.10;50.20;;;;;;7786889;22;19985;-71
2023/02/06 02:46:11;;;;;;;;;;;19.10;50.20;;;;;;7788219;22;19916;-71
2023/02/06 02:49:16;;;;;;;;;;;19.10;50.20;;;;;;7787024;22;19907;-71
2023/02/06 02:52:17;;;;;;;;;;;19.10;50.20;;;;;;7786845;22;19953;-71
2023/02/06 02:55:21;;;;;;;;;;;19.10;50.20;;;;;;7786940;22;19968;-71
2023/02/06 02:58:28;;;;;;;;;;;19.10;50.20;;;;;;7786982;22;19904;-71
2023/02/06 03:01:30;;;;;;;;;;;19.10;50.20;;;;;;7787392;22;19908;-71
2023/02/06 03:04:47;;;;;;;;;;;19.10;50.20;;;;;;7780150;22;20092;-69
2023/02/06 03:08:06;;;;;;;;;;;19.10;50.20;;;;;;7787142;22;20347;-72
2023/02/06 03:11:13;;;;;;;;;;;19.10;50.20;;;;;;7787309;22;19903;-71
2023/02/06 03:14:22;;;;;;;;;;;19.10;50.20;;;;;;7669350;23;19920;-71
2023/02/06 03:17:32;;;;;;;;;;;19.10;50.20;;;;;;7670224;23;19932;-71
2023/02/06 03:20:35;;;;;;;;;;;19.10;50.20;;;;;;7670167;23;20398;-71
2023/02/06 03:23:38;;;;;;;;;;;19.10;50.20;;;;;;7669017;23;19908;-71
2023/02/06 03:26:39;;;;;;;;;;;19.10;50.20;;;;;;7670312;23;19908;-71
2023/02/06 03:29:41;;;;;;;;;;;19.10;50.20;;;;;;7669485;23;20398;-71
2023/02/06 03:32:44;;;;;;;;;;;19.10;50.20;;;;;;7669318;23;19955;-71
2023/02/06 03:35:45;;;;;;;;;;;19.10;50.20;;;;;;7644948;23;20177;-71
2023/02/06 03:38:47;;;;;;;;;;;19.10;50.20;;;;;;7669747;23;19905;-71
2023/02/06 03:41:48;;;;;;;;;;;19.10;50.20;;;;;;7669706;23;20279;-72
2023/02/06 03:44:53;;;;;;;;;;;19.10;50.20;;;;;;7722626;22;19927;-71
2023/02/06 03:47:55;;;;;;;;;;;19.10;50.20;;;;;;7787164;22;19937;-71
2023/02/06 03:50:57;;;;;;;;;;;19.10;50.20;;;;;;7787228;22;19907;-71
2023/02/06 03:53:59;;;;;;;;;;;19.10;50.20;;;;;;7786161;22;19927;-71
2023/02/06 03:57:02;;;;;;;;;;;19.10;50.20;;;;;;7786835;22;20271;-71
2023/02/06 04:00:03;;;;;;;;;;;19.10;50.20;;;;;;7786869;22;20234;-71
2023/02/06 04:03:04;;;;;;;;;;;19.10;50.20;;;;;;7786221;22;19918;-71
2023/02/06 04:06:04;;;;;;;;;;;19.10;50.20;;;;;;7787065;22;19903;-71
2023/02/06 04:09:05;;;;;;;;;;;19.10;50.20;;;;;;7786712;22;20212;-71
2023/02/06 04:12:06;;;;;;;;;;;19.10;50.20;;;;;;7786381;22;20335;-71
2023/02/06 04:15:06;;;;;;;;;;;19.10;50.20;;;;;;7759236;22;19919;-71
2023/02/06 04:18:07;;;;;;;;;;;19.10;50.20;;;;;;7786605;22;19907;-71
2023/02/06 04:21:07;;;;;;;;;;;19.10;50.20;;;;;;7786058;22;20003;-71
2023/02/06 04:24:08;;;;;;;;;;;19.00;50.10;;;;;;7781520;22;19907;-71
2023/02/06 04:27:10;;;;;;;;;;;19.10;50.20;;;;;;7786385;22;19938;-70
2023/02/06 04:30:11;;;;;;;;;;;19.10;50.20;;;;;;7786137;22;20315;-71
2023/02/06 04:33:11;;;;;;;;;;;19.10;50.20;;;;;;7780952;22;19918;-71
2023/02/06 04:36:12;;;;;;;;;;;19.10;50.20;;;;;;7781466;22;19953;-71
2023/02/06 04:39:12;;;;;;;;;;;19.00;50.10;;;;;;7785998;22;19926;-71
2023/02/06 04:42:13;;;;;;;;;;;19.00;50.10;;;;;;7786004;22;19903;-70
2023/02/06 04:45:13;;;;;;;;;;;19.00;50.20;;;;;;7785241;22;19988;-71
2023/02/06 04:48:14;;;;;;;;;;;19.00;50.10;;;;;;7786058;22;19903;-70
2023/02/06 04:51:14;;;;;;;;;;;19.10;50.20;;;;;;7786037;22;20233;-71
2023/02/06 04:54:16;;;;;;;;;;;19.10;50.20;;;;;;7785876;22;19934;-71
2023/02/06 04:57:16;;;;;;;;;;;19.10;50.20;;;;;;7786146;22;20283;-71
2023/02/06 05:00:45;;;;;;;;;;;19.10;50.20;;;;;;7786033;22;20013;-71
2023/02/06 05:03:46;;;;;;;;;;;19.10;50.20;;;;;;7785416;22;20310;-71
2023/02/06 05:06:46;;;;;;;;;;;19.10;50.20;;;;;;7786069;22;19903;-71
2023/02/06 05:09:47;;;;;;;;;;;19.00;50.10;;;;;;7785520;22;19978;-71
2023/02/06 05:12:49;;;;;;;;;;;19.10;50.20;;;;;;7780692;22;19908;-71
2023/02/06 05:15:50;;;;;;;;;;;19.10;50.20;;;;;;7785633;22;19929;-71
2023/02/06 05:18:54;;;;;;;;;;;19.00;50.10;;;;;;7785462;22;19904;-69
2023/02/06 05:21:55;;;;;;;;;;;19.10;50.20;;;;;;7786416;22;19953;-71
2023/02/06 05:24:55;;;;;;;;;;;19.10;50.20;;;;;;7785191;22;19904;-71
2023/02/06 05:27:56;;;;;;;;;;;19.10;50.20;;;;;;7785875;22;20346;-71
2023/02/06 05:30:56;;;;;;;;;;;19.00;50.10;;;;;;7785883;22;19903;-71
2023/02/06 05:33:57;;;;;;;;;;;19.00;50.10;;;;;;7780725;22;19911;-70
2023/02/06 05:36:57;;;;;;;;;;;19.10;50.20;;;;;;7785164;22;19903;-71
2023/02/06 05:39:58;;;;;;;;;;;19.00;50.10;;;;;;7778609;22;19903;-71
2023/02/06 05:42:58;;;;;;;;;;;19.10;50.20;;;;;;7785293;22;20275;-71
2023/02/06 05:45:59;;;;;;;;;;;19.00;50.20;;;;;;7785393;22;20322;-71
2023/02/06 05:48:59;;;;;;;;;;;19.10;50.20;;;;;;7785787;22;19911;-71
2023/02/06 05:52:00;;;;;;;;;;;19.00;50.10;;;;;;7758555;22;20094;-71
2023/02/06 05:55:00;;;;;;;;;;;19.00;50.20;;;;;;7786107;22;19911;-71
2023/02/06 05:58:01;;;;;;;;;;;19.00;50.20;;;;;;7788196;22;19910;-71
2023/02/06 06:01:01;;;;;;;;;;;19.10;50.20;;;;;;7787040;22;19988;-71
2023/02/06 06:04:02;;;;;;;;;;;19.10;50.20;;;;;;7788083;22;19904;-71
2023/02/06 06:07:02;;;;;;;;;;;19.00;50.20;;;;;;7788115;22;19907;-71
2023/02/06 06:10:03;;;;;;;;;;;19.00;50.20;;;;;;7788061;22;20256;-71
2023/02/06 06:13:04;;;;;;;;;;;19.10;50.20;;;;;;7787559;22;19957;-71
2023/02/06 06:16:05;;;;;;;;;;;19.10;50.20;;;;;;7787583;22;19903;-71
2023/02/06 06:19:05;;;;;;;;;;;19.10;50.20;;;;;;7782892;22;19942;-71
2023/02/06 06:22:06;;;;;;;;;;;19.10;50.30;;;;;;7787443;22;19907;-71
2023/02/06 06:25:07;;;;;;;;;;;19.10;50.20;;;;;;7776877;22;19907;-72
2023/02/06 06:28:07;;;;;;;;;;;19.10;50.50;;;;;;7786008;22;19903;-71
2023/02/06 06:31:10;;;;;;;;;;;19.20;50.30;;;;;;7787031;22;19930;-72
2023/02/06 06:34:11;;;;;;;;;;;19.20;50.20;;;;;;7786937;22;20242;-71
2023/02/06 06:37:11;;;;;;;;;;;19.20;50.20;;;;;;7772261;22;19907;-73
2023/02/06 06:40:12;;;;;;;;;;;19.20;50.00;;;;;;7785998;22;19986;-72
2023/02/06 06:43:12;;;;;;;;;;;19.20;50.00;;;;;;7786037;22;19930;-72
2023/02/06 06:46:13;;;;;;;;;;;19.20;50.40;;;;;;7786634;22;19904;-71
2023/02/06 06:49:13;;;;;;;;;;;19.30;50.10;;;;;;7786332;22;19903;-72
2023/02/06 06:52:14;;;;;;;;;;;19.30;50.00;;;;;;7786710;22;19941;-71
2023/02/06 06:55:14;;;;;;;;;;;19.30;49.90;;;;;;7786246;22;19950;-71
2023/02/06 06:58:15;;;;;;;;;;;19.30;49.80;;;;;;7786879;22;19904;-72
2023/02/06 07:01:16;;;;;;;;;;;19.30;49.90;;;;;;7787075;22;19910;-71
2023/02/06 07:04:16;;;;;;;;;;;19.30;50.00;;;;;;7789168;22;19907;-71
2023/02/06 07:07:17;;;;;;;;;;;19.30;50.00;;;;;;7788769;22;19927;-71
2023/02/06 07:10:17;;;;;;;;;;;19.40;50.10;;;;;;7789105;22;19903;-72
2023/02/06 07:13:18;;;;;;;;;;;19.40;50.10;;;;;;7789515;22;20012;-71
2023/02/06 07:16:18;;;;;;;;;;;19.30;50.30;;;;;;7789532;22;19907;-71
2023/02/06 07:19:20;;;;;;;;;;;19.30;50.30;;;;;;7789554;22;19934;-71
2023/02/06 07:22:21;;;;;;;;;;;19.40;50.30;;;;;;7789600;22;19903;-71
2023/02/06 07:25:22;;;;;;;;;;;19.30;50.10;;;;;;7789171;22;20338;-71
2023/02/06 07:28:22;;;;;;;;;;;19.40;50.20;;;;;;7789945;22;20044;-71
2023/02/06 07:31:23;;;;;;;;;;;19.30;50.00;;;;;;7789710;22;20018;-71
2023/02/06 07:34:23;;;;;;;;;;;19.40;50.10;;;;;;7789662;22;19961;-73
2023/02/06 07:37:24;;;;;;;;;;;19.40;50.10;;;;;;7785076;22;19911;-71
2023/02/06 07:40:25;;;;;;;;;;;19.30;50.00;;;;;;7789300;22;20247;-72
2023/02/06 07:43:25;;;;;;;;;;;19.40;50.00;;;;;;7789151;22;19912;-71
2023/02/06 07:46:26;;;;;;;;;;;19.30;50.00;;;;;;7789254;22;19942;-72
2023/02/06 07:49:26;;;;;;;;;;;19.30;50.00;;;;;;7789695;22;19926;-72
2023/02/06 07:52:27;;;;;;;;;;;19.30;49.90;;;;;;7788986;22;20250;-72
2023/02/06 07:55:27;;;;;;;;;;;19.40;50.10;;;;;;7788767;22;20354;-72
2023/02/06 07:58:28;;;;;;;;;;;19.30;49.90;;;;;;7789034;22;19907;-72
2023/02/06 08:01:28;;;;;;;;;;;19.40;50.10;;;;;;7784050;22;19929;-72
2023/02/06 08:04:34;;;;;;;;;;;19.40;50.10;;;;;;7789105;22;19907;-72
2023/02/06 08:07:35;;;;;;;;;;;19.40;50.00;;;;;;7789187;22;19948;-72
2023/02/06 08:10:36;;;;;;;;;;;19.40;50.00;;;;;;7784170;22;19903;-72
2023/02/06 08:13:37;;;;;;;;;;;19.40;50.00;;;;;;7788732;22;19954;-72
2023/02/06 08:16:38;;;;;;;;;;;19.30;50.00;;;;;;7788674;22;19974;-72
2023/02/06 08:19:38;;;;;;;;;;;19.40;50.00;;;;;;7789078;22;19903;-72
2023/02/06 08:22:39;;;;;;;;;;;19.40;49.80;;;;;;7789021;22;19910;-71
2023/02/06 08:25:39;;;;;;;;;;;19.40;50.00;;;;;;7788711;22;19910;-72
2023/02/06 08:28:40;;;;;;;;;;;19.40;50.00;;;;;;7788780;22;19907;-72
2023/02/06 08:31:41;;;;;;;;;;;19.40;49.80;;;;;;7788667;22;19930;-71
2023/02/06 08:34:42;;;;;;;;;;;19.40;49.90;;;;;;7788787;22;20330;-71
2023/02/06 08:37:43;;;;;;;;;;;19.40;49.80;;;;;;7788539;22;19903;-71
2023/02/06 08:40:43;;;;;;;;;;;19.30;49.80;;;;;;7783416;22;20331;-71
2023/02/06 08:43:47;;;;;;;;;;;19.30;49.80;;;;;;7788585;22;19922;-72
2023/02/06 08:46:48;;;;;;;;;;;19.30;50.00;;;;;;7786624;22;19907;-72
2023/02/06 08:49:51;;;;;;;;;;;19.30;50.00;;;;;;7788949;22;19914;-72
2023/02/06 08:52:51;;;;;;;;;;;19.30;50.10;;;;;;7788348;22;19915;-72
2023/02/06 08:55:59;;;;;;;;;;;19.30;50.10;;;;;;7788854;22;19964;-72
2023/02/06 08:58:59;;;;;;;;;;;19.30;50.10;;;;;;7788707;22;19911;-72
2023/02/06 09:02:00;;;;;;;;;;;19.30;50.20;;;;;;7788246;22;19914;-72
2023/02/06 09:05:00;;;;;;;;;;;19.30;50.20;;;;;;7788804;22;19990;-72
2023/02/06 09:08:01;;;;;;;;;;;19.30;50.00;;;;;;7788234;22;19910;-72
2023/02/06 09:11:06;;;;;;;;;;;19.30;50.20;;;;;;7789007;22;19998;-72
2023/02/06 09:14:08;;;;;;;;;;;19.20;50.20;;;;;;7787830;22;19916;-72
2023/02/06 09:17:08;;;;;;;;;;;19.20;50.20;;;;;;7788145;22;19903;-72
2023/02/06 09:20:09;;;;;;;;;;;19.30;50.20;;;;;;7788239;22;19903;-71
2023/02/06 09:23:09;;;;;;;;;;;19.20;50.20;;;;;;7788335;22;20247;-72
2023/02/06 09:26:11;;;;;;;;;;;19.20;50.20;;;;;;7788177;22;19903;-72
2023/02/06 09:29:11;;;;;;;;;;;19.20;50.10;;;;;;7787974;22;19907;-72
2023/02/06 09:32:12;;;;;;;;;;;19.20;50.20;;;;;;7788155;22;19954;-72
2023/02/06 09:35:12;;;;;;;;;;;19.20;50.20;;;;;;7788251;22;20315;-72
2023/02/06 09:38:13;;;;;;;;;;;19.20;50.20;;;;;;7788307;22;19911;-71
2023/02/06 09:41:17;;;;;;;;;;;19.20;50.20;;;;;;7783100;22;19985;-72
2023/02/06 09:44:18;;;;;;;;;;;19.20;50.20;;;;;;7787529;22;20343;-72
2023/02/06 09:47:30;;;;;;;;;;;19.20;50.20;;;;;;7788043;22;19953;-71
2023/02/06 09:50:36;;;;;;;;;;;19.20;50.20;;;;;;7788464;22;19961;-71
2023/02/06 09:53:37;;;;;;;;;;;19.20;50.20;;;;;;7788074;22;19911;-72
2023/02/06 09:56:53;;;;;;;;;;;19.20;50.20;;;;;;7788129;22;19949;-72
2023/02/06 09:59:57;;;;;;;;;;;19.20;50.20;;;;;;7787757;22;19929;-72
2023/02/06 10:03:16;;;;;;;;;;;19.20;50.20;;;;;;7787760;22;19939;-72
2023/02/06 10:06:20;;;;;;;;;;;19.20;50.30;;;;;;7780492;22;19907;-72
2023/02/06 10:09:25;;;;;;;;;;;19.20;50.30;;;;;;7778718;22;20433;-72
2023/02/06 10:12:40;;;;;;;;;;;19.20;50.30;;;;;;7785354;22;19907;-72
2023/02/06 10:15:51;;;;;;;;;;;19.20;50.20;;;;;;7786232;22;19911;-72
2023/02/06 10:18:53;;;;;;;;;;;19.20;50.20;;;;;;7786519;22;19904;-72
2023/02/06 10:21:58;;;;;;;;;;;19.20;50.30;;;;;;7787289;22;19914;-71
2023/02/06 10:25:13;;;;;;;;;;;19.20;50.20;;;;;;7785818;22;19904;-72
2023/02/06 10:28:21;;;;;;;;;;;19.20;50.30;;;;;;7785571;22;19935;-72
2023/02/06 10:31:51;;;;;;;;;;;19.20;50.30;;;;;;7785793;22;20376;-72
2023/02/06 10:34:55;;;;;;;;;;;19.20;50.20;;;;;;7755276;22;19994;-72
2023/02/06 10:38:19;;;;;;;;;;;19.10;50.20;;;;;;7759852;22;20298;-71
2023/02/06 10:41:38;;;;;;;;;;;19.20;50.40;;;;;;7788005;22;19903;-72
2023/02/06 10:45:00;;;;;;;;;;;19.20;50.20;;;;;;7789544;22;20250;-71
2023/02/06 10:48:15;;;;;;;;;;;19.20;50.40;;;;;;7789239;22;19961;-72
2023/02/06 10:51:20;;;;;;;;;;;19.10;49.60;;;;;;7789512;22;19934;-72
2023/02/06 10:54:31;;;;;;;;;;;19.10;48.90;;;;;;7788880;22;19911;-72
2023/02/06 10:57:32;;;;;;;;;;;19.10;48.40;;;;;;7789310;22;20396;-72
2023/02/06 11:00:33;;;;;;;;;;;19.10;48.70;;;;;;7789255;22;19933;-72
2023/02/06 11:03:36;;;;;;;;;;;19.10;49.10;;;;;;7780200;22;19911;-72
2023/02/06 11:06:38;;;;;;;;;;;19.20;49.40;;;;;;7790633;22;19911;-71
2023/02/06 11:09:39;;;;;;;;;;;19.20;49.20;;;;;;7791127;22;19941;-75
2023/02/06 11:12:41;;;;;;;;;;;19.20;48.70;;;;;;7791387;22;19982;-72
2023/02/06 11:15:49;;;;;;;;;;;19.20;48.70;;;;;;7674648;23;19912;-72
2023/02/06 11:18:50;;;;;;;;;;;19.30;48.60;;;;;;7674652;23;19911;-72
2023/02/06 11:22:09;;;;;;;;;;;19.20;48.40;;;;;;7674781;23;19904;-72
2023/02/06 11:25:18;;;;;;;;;;;19.20;48.50;;;;;;7674820;23;19904;-71
2023/02/06 11:28:19;;;;;;;;;;;19.30;48.60;;;;;;7673927;23;19904;-72
2023/02/06 11:31:35;;;;;;;;;;;19.30;48.80;;;;;;7674387;23;20267;-72
2023/02/06 11:34:55;;;;;;;;;;;19.30;49.00;;;;;;7674122;23;19912;-72
2023/02/06 11:38:03;;;;;;;;;;;19.30;49.20;;;;;;7674043;23;19908;-72
2023/02/06 11:41:05;;;;;;;;;;;19.20;49.20;;;;;;7674044;23;19909;-72
2023/02/06 11:44:12;;;;;;;;;;;19.20;49.30;;;;;;7669192;23;19920;-72
2023/02/06 11:47:29;;;;;;;;;;;19.20;49.20;;;;;;7764201;22;20323;-72
2023/02/06 11:50:33;;;;;;;;;;;19.20;49.40;;;;;;7785588;22;19904;-72
2023/02/06 11:53:34;;;;;;;;;;;19.20;49.20;;;;;;7790606;22;19921;-72
2023/02/06 11:56:34;;;;;;;;;;;19.20;49.50;;;;;;7790675;22;19908;-72
2023/02/06 11:59:36;;;;;;;;;;;19.20;49.50;;;;;;7790804;22;20277;-73
2023/02/06 12:02:36;;;;;;;;;;;19.20;49.60;;;;;;7789805;22;20327;-73
2023/02/06 12:05:39;;;;;;;;;;;19.20;49.70;;;;;;7790220;22;19911;-72
2023/02/06 12:08:40;;;;;;;;;;;19.20;49.80;;;;;;7790020;22;19923;-72
2023/02/06 12:11:56;;;;;;;;;;;19.20;49.90;;;;;;7790555;22;19983;-72
2023/02/06 12:15:01;;;;;;;;;;;19.20;50.30;;;;;;7782877;22;19917;-72
2023/02/06 12:18:08;;;;;;;;;;;19.20;50.30;;;;;;7790044;22;19990;-72
2023/02/06 12:21:23;;;;;;;;;;;19.10;49.10;;;;;;7783575;22;19990;-73
2023/02/06 12:24:23;;;;;;;;;;;19.10;49.60;;;;;;7782775;22;20048;-72
2023/02/06 12:27:29;;;;;;;;;;;19.10;48.20;;;;;;7789952;22;19903;-73
2023/02/06 12:30:35;;;;;;;;;;;19.10;48.30;;;;;;7790090;22;20230;-72
2023/02/06 12:33:41;;;;;;;;;;;19.10;48.90;;;;;;7789457;22;20390;-72
2023/02/06 12:36:52;;;;;;;;;;;19.10;49.70;;;;;;7790216;22;20296;-72
2023/02/06 12:39:52;;;;;;;;;;;19.10;50.40;;;;;;7787994;22;19930;-72
2023/02/06 12:42:59;;;;;;;;;;;19.10;50.60;;;;;;7789087;22;19907;-72
2023/02/06 12:46:13;;;;;;;;;;;19.10;50.60;;;;;;7788880;22;19916;-72
2023/02/06 12:49:20;;;;;;;;;;;19.10;50.40;;;;;;7781276;22;19903;-72
2023/02/06 12:52:24;;;;;;;;;;;19.10;50.60;;;;;;7787247;22;20327;-72
2023/02/06 12:55:33;;;;;;;;;;;19.10;50.40;;;;;;7786250;22;19916;-72
2023/02/06 12:58:43;;;;;;;;;;;19.10;50.40;;;;;;7786637;22;20242;-72
2023/02/06 13:02:00;;;;;;;;;;;19.10;50.40;;;;;;7786464;22;20388;-72
2023/02/06 13:05:06;;;;;;;;;;;19.10;50.40;;;;;;7785302;22;20334;-72
2023/02/06 13:08:12;;;;;;;;;;;19.10;50.40;;;;;;7786492;22;19907;-72
2023/02/06 13:11:34;;;;;;;;;;;19.10;50.30;;;;;;7782238;22;19903;-72
2023/02/06 13:14:35;;;;;;;;;;;19.10;50.30;;;;;;7786344;22;19911;-72
2023/02/06 13:17:37;;;;;;;;;;;19.10;50.30;;;;;;7785951;22;19982;-72
2023/02/06 13:20:58;;;;;;;;;;;19.10;50.30;;;;;;7786419;22;19903;-72
2023/02/06 13:24:01;;;;;;;;;;;19.10;50.30;;;;;;7785633;22;19907;-71
2023/02/06 13:27:08;;;;;;;;;;;19.10;50.30;;;;;;7786103;22;19907;-72
2023/02/06 13:30:15;;;;;;;;;;;19.10;50.20;;;;;;7785287;22;20338;-72
2023/02/06 13:33:18;;;;;;;;;;;19.10;50.20;;;;;;7644664;23;19912;-72
2023/02/06 13:36:40;;;;;;;;;;;19.10;50.30;;;;;;7669419;23;20199;-72
2023/02/06 13:39:45;;;;;;;;;;;19.10;50.20;;;;;;7669537;23;19937;-72
2023/02/06 13:42:47;;;;;;;;;;;19.10;50.30;;;;;;7669966;23;19982;-72
2023/02/06 13:45:50;;;;;;;;;;;19.10;50.30;;;;;;7669070;23;19916;-72
2023/02/06 13:49:08;;;;;;;;;;;19.10;50.40;;;;;;7669242;23;20346;-71
2023/02/06 13:52:17;;;;;;;;;;;19.10;50.30;;;;;;7670020;23;19967;-72
2023/02/06 13:55:53;;;;;;;;;;;19.10;50.30;;;;;;7668920;23;19919;-72
2023/02/06 13:58:54;;;;;;;;;;;19.10;50.40;;;;;;7668750;23;19988;-72
2023/02/06 14:01:55;;;;;;;;;;;19.10;50.30;;;;;;7669913;23;19997;-72
2023/02/06 14:04:56;;;;;;;;;;;19.20;50.40;;;;;;7764637;22;19904;-72
2023/02/06 14:08:01;;;;;;;;;;;19.20;50.40;;;;;;7786328;22;19911;-72
2023/02/06 14:11:07;;;;;;;;;;;19.20;50.40;;;;;;7781127;22;19929;-73
2023/02/06 14:14:22;;;;;;;;;;;19.20;50.50;;;;;;7778616;22;19976;-72
2023/02/06 14:17:29;;;;;;;;;;;19.20;50.60;;;;;;7783505;22;20307;-73
2023/02/06 14:20:51;;;;;;;;;;;19.20;50.50;;;;;;7790938;22;19904;-73
2023/02/06 14:23:57;;;;;;;;;;;19.10;50.40;;;;;;7790367;22;19931;-73
2023/02/06 14:27:17;;;;;;;;;;;19.10;50.40;;;;;;7790472;22;19910;-73
2023/02/06 14:30:36;;;;;;;;;;;19.10;50.40;;;;;;7790494;22;19903;-73
2023/02/06 14:33:36;;;;;;;;;;;19.10;50.30;;;;;;7790951;22;19911;-73
2023/02/06 14:36:55;;;;;;;;;;;19.10;50.40;;;;;;7785725;22;20508;-73
2023/02/06 14:39:57;;;;;;;;;;;19.10;50.40;;;;;;7790952;22;19949;-73
2023/02/06 14:43:00;;;;;;;;;;;19.10;50.30;;;;;;7783281;22;19908;-73
2023/02/06 14:46:03;;;;;;;;;;;19.10;50.30;;;;;;7783390;22;20278;-73
2023/02/06 14:49:03;;;;;;;;;;;19.10;50.40;;;;;;7790294;22;19903;-73
2023/02/06 14:52:04;;;;;;;;;;;19.10;50.30;;;;;;7782120;22;19907;-73
2023/02/06 14:55:25;;;;;;;;;;;19.10;50.40;;;;;;7790475;22;19990;-73
2023/02/06 14:58:26;;;;;;;;;;;19.10;50.40;;;;;;7760036;22;19904;-73
2023/02/06 15:01:27;;;;;;;;;;;19.10;50.30;;;;;;7782570;22;19903;-73
2023/02/06 15:04:29;;;;;;;;;;;19.10;50.40;;;;;;7783713;22;19903;-73
2023/02/06 15:07:31;;;;;;;;;;;19.10;50.40;;;;;;7790371;22;20378;-73
2023/02/06 15:10:33;;;;;;;;;;;19.10;50.40;;;;;;7785803;22;19949;-73
2023/02/06 15:13:34;;;;;;;;;;;19.10;50.40;;;;;;7790737;22;19977;-73
2023/02/06 15:16:45;;;;;;;;;;;19.10;50.40;;;;;;7789909;22;20323;-73
2023/02/06 15:19:45;;;;;;;;;;;19.10;50.40;;;;;;7777903;22;19910;-73
2023/02/06 15:22:46;;;;;;;;;;;19.10;50.40;;;;;;7789954;22;19933;-73
2023/02/06 15:25:46;;;;;;;;;;;19.10;50.40;;;;;;7790314;22;19910;-73
2023/02/06 15:28:47;;;;;;;;;;;19.10;50.40;;;;;;7789758;22;20323;-73
2023/02/06 15:31:48;;;;;;;;;;;19.10;50.40;;;;;;7790208;22;20319;-72
2023/02/06 15:34:49;;;;;;;;;;;19.10;50.40;;;;;;7790291;22;19994;-73
2023/02/06 15:37:51;;;;;;;;;;;19.10;50.30;;;;;;7782837;22;19903;-73
2023/02/06 15:40:57;;;;;;;;;;;19.10;50.40;;;;;;7790202;22;19965;-73
2023/02/06 15:44:00;;;;;;;;;;;19.10;50.40;;;;;;7790050;22;19926;-73
2023/02/06 15:47:06;;;;;;;;;;;19.10;50.40;;;;;;7789970;22;19914;-73
2023/02/06 15:50:14;;;;;;;;;;;19.10;50.40;;;;;;7785302;22;19930;-73
2023/02/06 15:53:15;;;;;;;;;;;19.10;50.40;;;;;;7790257;22;19914;-73
2023/02/06 15:56:19;;;;;;;;;;;19.00;49.10;;;;;;7789279;22;19911;-73
2023/02/06 15:59:21;;;;;;;;;;;19.10;48.20;;;;;;7788793;22;19903;-72
2023/02/06 16:02:25;;;;;;;;;;;19.00;47.20;;;;;;7788443;22;20274;-72
2023/02/06 16:05:29;;;;;;;;;;;19.00;47.10;;;;;;7788418;22;19927;-73
2023/02/06 16:08:33;;;;;;;;;;;19.10;47.70;;;;;;7788099;22;20212;-73
2023/02/06 16:11:46;;;;;;;;;;;19.10;48.20;;;;;;7789715;22;19961;-73
2023/02/06 16:14:52;;;;;;;;;;;19.10;48.70;;;;;;7785398;22;19915;-73
2023/02/06 16:17:53;;;;;;;;;;;19.10;48.60;;;;;;7788865;22;19903;-72
2023/02/06 16:21:09;;;;;;;;;;;19.10;48.50;;;;;;7788409;22;19907;-72
2023/02/06 16:24:15;;;;;;;;;;;19.10;48.90;;;;;;7784315;22;19904;-73
2023/02/06 16:27:17;;;;;;;;;;;19.10;49.00;;;;;;7788458;22;19904;-72
2023/02/06 16:30:26;;;;;;;;;;;19.10;49.20;;;;;;7789339;22;20315;-73
2023/02/06 16:33:36;;;;;;;;;;;19.10;49.10;;;;;;7788978;22;19944;-74
2023/02/06 16:36:36;;;;;;;;;;;19.10;49.20;;;;;;7789156;22;20275;-74
2023/02/06 16:39:39;;;;;;;;;;;19.10;49.10;;;;;;7788012;22;19977;-72
2023/02/06 16:42:40;;;;;;;;;;;19.10;49.10;;;;;;7789047;22;20306;-73
2023/02/06 16:45:40;;;;;;;;;;;19.10;49.10;;;;;;7788556;22;20033;-73
2023/02/06 16:48:41;;;;;;;;;;;19.10;49.20;;;;;;7779416;22;19904;-73
2023/02/06 16:51:42;;;;;;;;;;;19.10;49.20;;;;;;7789138;22;19957;-73
2023/02/06 16:54:43;;;;;;;;;;;19.10;49.40;;;;;;7789041;22;19915;-72
2023/02/06 16:57:44;;;;;;;;;;;19.10;49.40;;;;;;7778832;22;19915;-72
2023/02/06 17:00:46;;;;;;;;;;;19.10;49.70;;;;;;7789135;22;19957;-72
2023/02/06 17:03:50;;;;;;;;;;;19.20;49.60;;;;;;7780164;22;19973;-72
2023/02/06 17:06:51;;;;;;;;;;;19.20;49.60;;;;;;7783407;22;19903;-73
2023/02/06 17:09:52;;;;;;;;;;;19.20;49.70;;;;;;7789306;22;19910;-72
2023/02/06 17:12:53;;;;;;;;;;;19.10;49.70;;;;;;7788196;22;20094;-72
2023/02/06 17:15:54;;;;;;;;;;;19.10;49.60;;;;;;7786086;22;19907;-73
2023/02/06 17:18:55;;;;;;;;;;;19.10;49.60;;;;;;7776123;22;19904;-72
2023/02/06 17:21:55;;;;;;;;;;;19.10;49.70;;;;;;7780858;22;19957;-72
2023/02/06 17:24:56;;;;;;;;;;;19.10;49.70;;;;;;7785420;22;20315;-72
2023/02/06 17:27:57;;;;;;;;;;;19.10;49.70;;;;;;7779895;22;19907;-72
2023/02/06 17:30:57;;;;;;;;;;;19.10;49.70;;;;;;7785570;22;20365;-72
2023/02/06 17:33:58;;;;;;;;;;;19.10;49.70;;;;;;7786151;22;20327;-72
2023/02/06 17:36:59;;;;;;;;;;;19.10;49.70;;;;;;7785670;22;19903;-73
2023/02/06 17:39:59;;;;;;;;;;;19.10;49.70;;;;;;7786001;22;20311;-73
2023/02/06 17:43:00;;;;;;;;;;;19.10;49.70;;;;;;7786172;22;19935;-72
2023/02/06 17:46:01;;;;;;;;;;;19.10;49.70;;;;;;7785999;22;20434;-73
2023/02/06 17:49:02;;;;;;;;;;;19.00;49.70;;;;;;7776298;22;19957;-72